sensor_id;sensor_type;location;lat;lon;timestamp;P1;durP1;ratioP1;P2;durP2;ratioP2
36221;SDS011;22266;52.340;4.962;2022-12-18T00:00:48;41.67;;;35.00;;
36221;SDS011;22266;52.340;4.962;2022-12-18T00:03:15;51.67;;;42.33;;
36221;SDS011;22266;52.340;4.962;2022-12-18T00:05:50;53.67;;;45.00;;
36221;SDS011;22266;52.340;4.962;2022-12-18T00:08:18;49.00;;;44.67;;
36221;SDS011;22266;52.340;4.962;2022-12-18T00:10:45;56.00;;;45.00;;
36221;SDS011;22266;52.340;4.962;2022-12-18T00:13:11;60.33;;;45.33;;
36221;SDS011;22266;52.340;4.962;2022-12-18T00:15:38;56.00;;;45.00;;
36221;SDS011;22266;52.340;4.962;2022-12-18T00:18:05;51.67;;;41.33;;
36221;SDS011;22266;52.340;4.962;2022-12-18T00:20:36;54.00;;;42.67;;
36221;SDS011;22266;52.340;4.962;2022-12-18T00:23:04;55.00;;;45.00;;
36221;SDS011;22266;52.340;4.962;2022-12-18T00:25:35;64.33;;;45.67;;
36221;SDS011;22266;52.340;4.962;2022-12-18T00:28:03;46.00;;;40.00;;
36221;SDS011;22266;52.340;4.962;2022-12-18T00:30:30;64.33;;;50.67;;
36221;SDS011;22266;52.340;4.962;2022-12-18T00:32:57;62.67;;;43.00;;
36221;SDS011;22266;52.340;4.962;2022-12-18T00:35:24;45.00;;;42.67;;
36221;SDS011;22266;52.340;4.962;2022-12-18T00:37:51;50.33;;;44.00;;
36221;SDS011;22266;52.340;4.962;2022-12-18T00:40:17;50.67;;;40.67;;
36221;SDS011;22266;52.340;4.962;2022-12-18T00:42:44;52.50;;;41.25;;
36221;SDS011;22266;52.340;4.962;2022-12-18T00:45:26;50.33;;;45.00;;
36221;SDS011;22266;52.340;4.962;2022-12-18T00:47:55;54.67;;;43.67;;
36221;SDS011;22266;52.340;4.962;2022-12-18T00:50:23;49.67;;;44.33;;
36221;SDS011;22266;52.340;4.962;2022-12-18T00:52:50;44.25;;;40.75;;
36221;SDS011;22266;52.340;4.962;2022-12-18T00:55:17;44.33;;;39.67;;
36221;SDS011;22266;52.340;4.962;2022-12-18T00:57:45;48.33;;;40.00;;
36221;SDS011;22266;52.340;4.962;2022-12-18T01:00:13;44.00;;;39.50;;
36221;SDS011;22266;52.340;4.962;2022-12-18T01:02:41;49.33;;;44.00;;
36221;SDS011;22266;52.340;4.962;2022-12-18T01:05:09;53.67;;;41.33;;
36221;SDS011;22266;52.340;4.962;2022-12-18T01:07:37;53.00;;;41.33;;
36221;SDS011;22266;52.340;4.962;2022-12-18T01:10:04;40.00;;;33.75;;
36221;SDS011;22266;52.340;4.962;2022-12-18T01:12:34;40.00;;;34.50;;
36221;SDS011;22266;52.340;4.962;2022-12-18T01:15:00;49.25;;;37.75;;
36221;SDS011;22266;52.340;4.962;2022-12-18T01:17:27;39.50;;;35.50;;
36221;SDS011;22266;52.340;4.962;2022-12-18T01:19:53;44.25;;;35.00;;
36221;SDS011;22266;52.340;4.962;2022-12-18T01:22:20;47.25;;;37.50;;
36221;SDS011;22266;52.340;4.962;2022-12-18T01:24:46;59.00;;;43.33;;
36221;SDS011;22266;52.340;4.962;2022-12-18T01:27:13;40.67;;;35.33;;
36221;SDS011;22266;52.340;4.962;2022-12-18T01:29:40;46.00;;;33.00;;
36221;SDS011;22266;52.340;4.962;2022-12-18T01:32:06;51.00;;;42.33;;
36221;SDS011;22266;52.340;4.962;2022-12-18T01:34:35;42.00;;;34.50;;
36221;SDS011;22266;52.340;4.962;2022-12-18T01:37:03;48.67;;;39.00;;
36221;SDS011;22266;52.340;4.962;2022-12-18T01:39:30;52.67;;;46.33;;
36221;SDS011;22266;52.340;4.962;2022-12-18T01:42:02;46.00;;;38.00;;
36221;SDS011;22266;52.340;4.962;2022-12-18T01:50:16;42.33;;;37.67;;
36221;SDS011;22266;52.340;4.962;2022-12-18T01:53:00;44.67;;;39.00;;
36221;SDS011;22266;52.340;4.962;2022-12-18T01:55:32;45.33;;;40.00;;
36221;SDS011;22266;52.340;4.962;2022-12-18T01:58:06;40.33;;;33.67;;
36221;SDS011;22266;52.340;4.962;2022-12-18T02:00:32;42.33;;;34.67;;
36221;SDS011;22266;52.340;4.962;2022-12-18T02:02:59;38.75;;;35.25;;
36221;SDS011;22266;52.340;4.962;2022-12-18T02:05:35;46.00;;;36.67;;
36221;SDS011;22266;52.340;4.962;2022-12-18T02:11:32;29.00;;;26.67;;
36221;SDS011;22266;52.340;4.962;2022-12-18T02:22:20;41.00;;;35.33;;
36221;SDS011;22266;52.340;4.962;2022-12-18T02:28:16;50.33;;;40.67;;
36221;SDS011;22266;52.340;4.962;2022-12-18T02:30:47;41.00;;;31.33;;
36221;SDS011;22266;52.340;4.962;2022-12-18T02:33:18;40.25;;;33.50;;
36221;SDS011;22266;52.340;4.962;2022-12-18T02:35:47;41.33;;;33.67;;
36221;SDS011;22266;52.340;4.962;2022-12-18T02:38:15;48.00;;;39.00;;
36221;SDS011;22266;52.340;4.962;2022-12-18T02:40:45;46.33;;;37.67;;
36221;SDS011;22266;52.340;4.962;2022-12-18T02:43:15;47.67;;;40.00;;
36221;SDS011;22266;52.340;4.962;2022-12-18T02:45:46;49.33;;;40.33;;
36221;SDS011;22266;52.340;4.962;2022-12-18T02:48:15;36.33;;;33.33;;
36221;SDS011;22266;52.340;4.962;2022-12-18T02:50:45;41.67;;;39.33;;
36221;SDS011;22266;52.340;4.962;2022-12-18T02:53:41;38.67;;;29.67;;
36221;SDS011;22266;52.340;4.962;2022-12-18T02:56:30;52.33;;;36.67;;
36221;SDS011;22266;52.340;4.962;2022-12-18T02:59:18;37.00;;;34.75;;
36221;SDS011;22266;52.340;4.962;2022-12-18T03:01:57;47.33;;;38.00;;
36221;SDS011;22266;52.340;4.962;2022-12-18T03:04:34;51.67;;;38.33;;
36221;SDS011;22266;52.340;4.962;2022-12-18T03:07:08;39.33;;;36.00;;
36221;SDS011;22266;52.340;4.962;2022-12-18T03:09:40;36.00;;;31.00;;
36221;SDS011;22266;52.340;4.962;2022-12-18T03:12:18;45.67;;;40.33;;
36221;SDS011;22266;52.340;4.962;2022-12-18T03:17:22;42.00;;;35.67;;
36221;SDS011;22266;52.340;4.962;2022-12-18T03:19:53;37.33;;;34.67;;
36221;SDS011;22266;52.340;4.962;2022-12-18T03:22:24;40.00;;;31.33;;
36221;SDS011;22266;52.340;4.962;2022-12-18T03:24:55;49.67;;;43.67;;
36221;SDS011;22266;52.340;4.962;2022-12-18T03:27:23;42.00;;;36.67;;
36221;SDS011;22266;52.340;4.962;2022-12-18T03:30:13;46.33;;;36.67;;
36221;SDS011;22266;52.340;4.962;2022-12-18T03:35:11;41.00;;;34.67;;
36221;SDS011;22266;52.340;4.962;2022-12-18T03:37:41;44.33;;;37.00;;
36221;SDS011;22266;52.340;4.962;2022-12-18T03:40:07;40.33;;;36.00;;
36221;SDS011;22266;52.340;4.962;2022-12-18T03:42:43;45.00;;;34.00;;
36221;SDS011;22266;52.340;4.962;2022-12-18T03:48:00;52.00;;;42.67;;
36221;SDS011;22266;52.340;4.962;2022-12-18T03:54:00;48.33;;;37.67;;
36221;SDS011;22266;52.340;4.962;2022-12-18T03:56:37;52.33;;;42.00;;
36221;SDS011;22266;52.340;4.962;2022-12-18T03:59:09;41.00;;;37.33;;
36221;SDS011;22266;52.340;4.962;2022-12-18T04:01:40;36.67;;;31.00;;
36221;SDS011;22266;52.340;4.962;2022-12-18T04:04:13;57.00;;;45.00;;
36221;SDS011;22266;52.340;4.962;2022-12-18T04:06:43;47.67;;;35.33;;
36221;SDS011;22266;52.340;4.962;2022-12-18T04:09:13;51.33;;;43.33;;
36221;SDS011;22266;52.340;4.962;2022-12-18T04:11:44;48.33;;;39.67;;
36221;SDS011;22266;52.340;4.962;2022-12-18T04:14:14;43.67;;;37.00;;
36221;SDS011;22266;52.340;4.962;2022-12-18T04:16:44;42.33;;;39.67;;
36221;SDS011;22266;52.340;4.962;2022-12-18T04:19:14;42.00;;;33.00;;
36221;SDS011;22266;52.340;4.962;2022-12-18T04:21:42;41.33;;;38.33;;
36221;SDS011;22266;52.340;4.962;2022-12-18T04:24:11;50.67;;;43.00;;
36221;SDS011;22266;52.340;4.962;2022-12-18T04:26:43;52.00;;;43.00;;
36221;SDS011;22266;52.340;4.962;2022-12-18T04:29:14;39.67;;;32.33;;
36221;SDS011;22266;52.340;4.962;2022-12-18T04:31:41;42.33;;;37.33;;
36221;SDS011;22266;52.340;4.962;2022-12-18T04:34:08;46.33;;;32.67;;
36221;SDS011;22266;52.340;4.962;2022-12-18T04:36:40;48.33;;;36.33;;
36221;SDS011;22266;52.340;4.962;2022-12-18T04:39:07;52.33;;;37.33;;
36221;SDS011;22266;52.340;4.962;2022-12-18T04:41:34;42.67;;;37.67;;
36221;SDS011;22266;52.340;4.962;2022-12-18T04:44:01;51.00;;;40.33;;
36221;SDS011;22266;52.340;4.962;2022-12-18T04:46:28;39.67;;;33.67;;
36221;SDS011;22266;52.340;4.962;2022-12-18T04:48:54;51.00;;;39.00;;
36221;SDS011;22266;52.340;4.962;2022-12-18T04:51:21;45.33;;;42.33;;
36221;SDS011;22266;52.340;4.962;2022-12-18T04:53:52;45.33;;;39.33;;
36221;SDS011;22266;52.340;4.962;2022-12-18T04:56:18;53.00;;;46.33;;
36221;SDS011;22266;52.340;4.962;2022-12-18T04:58:45;42.33;;;39.67;;
36221;SDS011;22266;52.340;4.962;2022-12-18T05:01:14;48.33;;;38.33;;
36221;SDS011;22266;52.340;4.962;2022-12-18T05:03:42;52.67;;;44.33;;
36221;SDS011;22266;52.340;4.962;2022-12-18T05:06:09;50.67;;;33.00;;
36221;SDS011;22266;52.340;4.962;2022-12-18T05:08:36;42.00;;;36.67;;
36221;SDS011;22266;52.340;4.962;2022-12-18T05:11:04;43.67;;;38.33;;
36221;SDS011;22266;52.340;4.962;2022-12-18T05:13:32;41.00;;;41.00;;
36221;SDS011;22266;52.340;4.962;2022-12-18T05:15:59;46.33;;;39.00;;
36221;SDS011;22266;52.340;4.962;2022-12-18T05:18:26;40.33;;;35.67;;
36221;SDS011;22266;52.340;4.962;2022-12-18T05:20:53;51.67;;;37.67;;
36221;SDS011;22266;52.340;4.962;2022-12-18T05:23:20;38.67;;;34.00;;
36221;SDS011;22266;52.340;4.962;2022-12-18T05:25:59;48.67;;;39.00;;
36221;SDS011;22266;52.340;4.962;2022-12-18T05:28:27;48.00;;;38.33;;
36221;SDS011;22266;52.340;4.962;2022-12-18T05:30:56;45.33;;;35.00;;
36221;SDS011;22266;52.340;4.962;2022-12-18T05:33:25;46.67;;;39.33;;
36221;SDS011;22266;52.340;4.962;2022-12-18T05:35:55;45.00;;;36.67;;
36221;SDS011;22266;52.340;4.962;2022-12-18T05:38:24;44.33;;;37.67;;
36221;SDS011;22266;52.340;4.962;2022-12-18T05:40:52;26.33;;;24.67;;
36221;SDS011;22266;52.340;4.962;2022-12-18T05:43:19;45.00;;;34.33;;
36221;SDS011;22266;52.340;4.962;2022-12-18T05:45:48;37.67;;;35.33;;
36221;SDS011;22266;52.340;4.962;2022-12-18T05:48:15;54.67;;;43.00;;
36221;SDS011;22266;52.340;4.962;2022-12-18T05:50:43;53.67;;;45.00;;
36221;SDS011;22266;52.340;4.962;2022-12-18T05:53:14;36.33;;;30.00;;
36221;SDS011;22266;52.340;4.962;2022-12-18T05:55:42;53.00;;;42.67;;
36221;SDS011;22266;52.340;4.962;2022-12-18T05:58:10;50.33;;;39.67;;
36221;SDS011;22266;52.340;4.962;2022-12-18T06:00:38;47.33;;;36.67;;
36221;SDS011;22266;52.340;4.962;2022-12-18T06:03:10;43.00;;;37.67;;
36221;SDS011;22266;52.340;4.962;2022-12-18T06:05:38;46.67;;;38.67;;
36221;SDS011;22266;52.340;4.962;2022-12-18T06:08:06;39.00;;;32.33;;
36221;SDS011;22266;52.340;4.962;2022-12-18T06:10:33;40.33;;;34.00;;
36221;SDS011;22266;52.340;4.962;2022-12-18T06:13:00;40.00;;;36.00;;
36221;SDS011;22266;52.340;4.962;2022-12-18T06:15:27;39.00;;;36.67;;
36221;SDS011;22266;52.340;4.962;2022-12-18T06:17:53;37.00;;;31.00;;
36221;SDS011;22266;52.340;4.962;2022-12-18T06:20:19;43.00;;;35.33;;
36221;SDS011;22266;52.340;4.962;2022-12-18T06:22:46;42.00;;;38.33;;
36221;SDS011;22266;52.340;4.962;2022-12-18T06:25:13;45.67;;;34.67;;
36221;SDS011;22266;52.340;4.962;2022-12-18T06:27:40;38.33;;;32.33;;
36221;SDS011;22266;52.340;4.962;2022-12-18T06:30:07;43.67;;;39.33;;
36221;SDS011;22266;52.340;4.962;2022-12-18T06:32:34;45.00;;;39.33;;
36221;SDS011;22266;52.340;4.962;2022-12-18T06:35:00;42.67;;;35.33;;
36221;SDS011;22266;52.340;4.962;2022-12-18T06:37:27;46.00;;;34.67;;
36221;SDS011;22266;52.340;4.962;2022-12-18T06:39:54;40.67;;;35.33;;
36221;SDS011;22266;52.340;4.962;2022-12-18T06:42:20;45.00;;;39.33;;
36221;SDS011;22266;52.340;4.962;2022-12-18T06:44:49;41.33;;;33.67;;
36221;SDS011;22266;52.340;4.962;2022-12-18T06:47:15;44.33;;;35.00;;
36221;SDS011;22266;52.340;4.962;2022-12-18T06:49:41;39.00;;;32.67;;
36221;SDS011;22266;52.340;4.962;2022-12-18T06:52:09;38.33;;;31.33;;
36221;SDS011;22266;52.340;4.962;2022-12-18T06:54:35;34.00;;;27.67;;
36221;SDS011;22266;52.340;4.962;2022-12-18T06:57:01;36.67;;;30.00;;
36221;SDS011;22266;52.340;4.962;2022-12-18T06:59:28;37.67;;;31.67;;
36221;SDS011;22266;52.340;4.962;2022-12-18T07:01:54;27.00;;;26.67;;
36221;SDS011;22266;52.340;4.962;2022-12-18T07:04:21;33.00;;;29.00;;
36221;SDS011;22266;52.340;4.962;2022-12-18T07:06:47;37.67;;;30.33;;
36221;SDS011;22266;52.340;4.962;2022-12-18T07:09:14;27.00;;;22.33;;
36221;SDS011;22266;52.340;4.962;2022-12-18T07:11:40;33.33;;;30.33;;
36221;SDS011;22266;52.340;4.962;2022-12-18T07:14:07;38.67;;;33.33;;
36221;SDS011;22266;52.340;4.962;2022-12-18T07:16:34;38.67;;;32.00;;
36221;SDS011;22266;52.340;4.962;2022-12-18T07:19:00;40.67;;;32.33;;
36221;SDS011;22266;52.340;4.962;2022-12-18T07:21:27;31.33;;;24.33;;
36221;SDS011;22266;52.340;4.962;2022-12-18T07:23:53;26.33;;;25.67;;
36221;SDS011;22266;52.340;4.962;2022-12-18T07:26:20;32.33;;;26.33;;
36221;SDS011;22266;52.340;4.962;2022-12-18T07:28:48;27.33;;;21.33;;
36221;SDS011;22266;52.340;4.962;2022-12-18T07:31:16;24.67;;;24.67;;
36221;SDS011;22266;52.340;4.962;2022-12-18T07:33:45;27.33;;;27.00;;
36221;SDS011;22266;52.340;4.962;2022-12-18T07:36:12;28.00;;;26.33;;
36221;SDS011;22266;52.340;4.962;2022-12-18T07:38:39;21.00;;;20.33;;
36221;SDS011;22266;52.340;4.962;2022-12-18T07:41:09;26.67;;;23.33;;
36221;SDS011;22266;52.340;4.962;2022-12-18T07:43:38;24.67;;;22.33;;
36221;SDS011;22266;52.340;4.962;2022-12-18T07:46:07;46.67;;;30.00;;
36221;SDS011;22266;52.340;4.962;2022-12-18T07:48:34;29.00;;;24.33;;
36221;SDS011;22266;52.340;4.962;2022-12-18T07:51:04;27.67;;;24.00;;
36221;SDS011;22266;52.340;4.962;2022-12-18T07:53:32;24.33;;;22.67;;
36221;SDS011;22266;52.340;4.962;2022-12-18T07:56:00;33.00;;;31.00;;
36221;SDS011;22266;52.340;4.962;2022-12-18T07:58:48;19.00;;;18.33;;
36221;SDS011;22266;52.340;4.962;2022-12-18T08:01:15;30.00;;;23.33;;
36221;SDS011;22266;52.340;4.962;2022-12-18T08:03:42;30.00;;;27.00;;
36221;SDS011;22266;52.340;4.962;2022-12-18T08:06:09;28.67;;;25.67;;
36221;SDS011;22266;52.340;4.962;2022-12-18T08:08:36;24.33;;;22.00;;
36221;SDS011;22266;52.340;4.962;2022-12-18T08:11:02;27.33;;;23.33;;
36221;SDS011;22266;52.340;4.962;2022-12-18T08:13:29;27.33;;;22.00;;
36221;SDS011;22266;52.340;4.962;2022-12-18T08:15:56;24.67;;;22.33;;
36221;SDS011;22266;52.340;4.962;2022-12-18T08:18:24;32.50;;;29.00;;
36221;SDS011;22266;52.340;4.962;2022-12-18T08:20:51;30.00;;;25.00;;
36221;SDS011;22266;52.340;4.962;2022-12-18T08:23:17;35.67;;;30.33;;
36221;SDS011;22266;52.340;4.962;2022-12-18T08:25:44;25.50;;;21.00;;
36221;SDS011;22266;52.340;4.962;2022-12-18T08:28:10;34.67;;;31.67;;
36221;SDS011;22266;52.340;4.962;2022-12-18T08:30:37;31.00;;;29.33;;
36221;SDS011;22266;52.340;4.962;2022-12-18T08:33:03;32.33;;;29.33;;
36221;SDS011;22266;52.340;4.962;2022-12-18T08:35:30;27.33;;;25.67;;
36221;SDS011;22266;52.340;4.962;2022-12-18T08:38:06;13.00;;;9.67;;
36221;SDS011;22266;52.340;4.962;2022-12-18T08:40:32;28.33;;;22.00;;
36221;SDS011;22266;52.340;4.962;2022-12-18T08:42:59;30.00;;;23.33;;
36221;SDS011;22266;52.340;4.962;2022-12-18T08:45:44;24.67;;;22.33;;
36221;SDS011;22266;52.340;4.962;2022-12-18T08:48:10;24.25;;;22.00;;
36221;SDS011;22266;52.340;4.962;2022-12-18T08:50:37;25.00;;;21.33;;
36221;SDS011;22266;52.340;4.962;2022-12-18T08:53:03;24.50;;;21.50;;
36221;SDS011;22266;52.340;4.962;2022-12-18T08:55:30;26.00;;;24.67;;
36221;SDS011;22266;52.340;4.962;2022-12-18T08:57:56;27.25;;;24.00;;
36221;SDS011;22266;52.340;4.962;2022-12-18T09:00:23;27.00;;;23.50;;
36221;SDS011;22266;52.340;4.962;2022-12-18T09:02:49;27.67;;;27.33;;
36221;SDS011;22266;52.340;4.962;2022-12-18T09:05:16;25.25;;;25.25;;
36221;SDS011;22266;52.340;4.962;2022-12-18T09:07:42;28.00;;;22.67;;
36221;SDS011;22266;52.340;4.962;2022-12-18T09:10:09;34.67;;;26.33;;
36221;SDS011;22266;52.340;4.962;2022-12-18T09:12:36;27.00;;;24.00;;
36221;SDS011;22266;52.340;4.962;2022-12-18T09:15:02;25.67;;;23.67;;
36221;SDS011;22266;52.340;4.962;2022-12-18T09:17:29;33.00;;;30.00;;
36221;SDS011;22266;52.340;4.962;2022-12-18T09:19:56;32.67;;;30.33;;
36221;SDS011;22266;52.340;4.962;2022-12-18T09:22:22;33.25;;;27.50;;
36221;SDS011;22266;52.340;4.962;2022-12-18T09:24:48;30.00;;;22.00;;
36221;SDS011;22266;52.340;4.962;2022-12-18T09:27:15;27.25;;;21.75;;
36221;SDS011;22266;52.340;4.962;2022-12-18T09:29:42;36.33;;;27.00;;
36221;SDS011;22266;52.340;4.962;2022-12-18T09:32:08;35.67;;;30.33;;
36221;SDS011;22266;52.340;4.962;2022-12-18T09:34:35;33.33;;;27.00;;
36221;SDS011;22266;52.340;4.962;2022-12-18T09:37:01;23.25;;;20.00;;
36221;SDS011;22266;52.340;4.962;2022-12-18T09:39:28;29.67;;;24.33;;
36221;SDS011;22266;52.340;4.962;2022-12-18T09:41:55;33.67;;;29.33;;
36221;SDS011;22266;52.340;4.962;2022-12-18T09:49:47;28.50;;;23.00;;
36221;SDS011;22266;52.340;4.962;2022-12-18T09:52:23;30.00;;;27.00;;
36221;SDS011;22266;52.340;4.962;2022-12-18T09:54:53;35.33;;;29.33;;
36221;SDS011;22266;52.340;4.962;2022-12-18T09:57:26;27.00;;;25.67;;
36221;SDS011;22266;52.340;4.962;2022-12-18T09:59:56;27.67;;;23.33;;
36221;SDS011;22266;52.340;4.962;2022-12-18T10:02:36;30.25;;;26.00;;
36221;SDS011;22266;52.340;4.962;2022-12-18T10:05:07;39.00;;;28.67;;
36221;SDS011;22266;52.340;4.962;2022-12-18T10:07:47;33.67;;;26.67;;
36221;SDS011;22266;52.340;4.962;2022-12-18T10:12:53;30.33;;;27.67;;
36221;SDS011;22266;52.340;4.962;2022-12-18T10:20:54;26.75;;;23.00;;
36221;SDS011;22266;52.340;4.962;2022-12-18T10:26:03;27.67;;;24.33;;
36221;SDS011;22266;52.340;4.962;2022-12-18T10:28:32;38.33;;;30.33;;
36221;SDS011;22266;52.340;4.962;2022-12-18T10:31:02;22.25;;;22.25;;
36221;SDS011;22266;52.340;4.962;2022-12-18T10:33:31;26.75;;;23.75;;
36221;SDS011;22266;52.340;4.962;2022-12-18T10:35:59;32.50;;;24.25;;
36221;SDS011;22266;52.340;4.962;2022-12-18T10:38:30;32.67;;;25.67;;
36221;SDS011;22266;52.340;4.962;2022-12-18T10:40:59;27.00;;;25.00;;
36221;SDS011;22266;52.340;4.962;2022-12-18T10:43:28;30.75;;;26.50;;
36221;SDS011;22266;52.340;4.962;2022-12-18T10:48:37;29.75;;;26.50;;
36221;SDS011;22266;52.340;4.962;2022-12-18T10:51:08;25.75;;;21.25;;
36221;SDS011;22266;52.340;4.962;2022-12-18T10:53:38;27.25;;;24.25;;
36221;SDS011;22266;52.340;4.962;2022-12-18T10:56:07;28.50;;;24.75;;
36221;SDS011;22266;52.340;4.962;2022-12-18T10:58:35;32.00;;;29.75;;
36221;SDS011;22266;52.340;4.962;2022-12-18T11:06:05;27.50;;;24.25;;
36221;SDS011;22266;52.340;4.962;2022-12-18T11:08:40;24.75;;;22.25;;
36221;SDS011;22266;52.340;4.962;2022-12-18T11:11:21;37.75;;;29.50;;
36221;SDS011;22266;52.340;4.962;2022-12-18T11:13:55;33.50;;;27.25;;
36221;SDS011;22266;52.340;4.962;2022-12-18T11:16:33;25.00;;;25.00;;
36221;SDS011;22266;52.340;4.962;2022-12-18T11:19:30;39.75;;;23.25;;
36221;SDS011;22266;52.340;4.962;2022-12-18T11:22:04;27.25;;;27.25;;
36221;SDS011;22266;52.340;4.962;2022-12-18T11:24:53;34.75;;;25.75;;
36221;SDS011;22266;52.340;4.962;2022-12-18T11:27:54;29.75;;;25.75;;
36221;SDS011;22266;52.340;4.962;2022-12-18T11:32:58;30.25;;;24.50;;
36221;SDS011;22266;52.340;4.962;2022-12-18T11:38:02;39.25;;;27.00;;
36221;SDS011;22266;52.340;4.962;2022-12-18T11:40:37;30.50;;;26.50;;
36221;SDS011;22266;52.340;4.962;2022-12-18T11:45:41;29.25;;;27.25;;
36221;SDS011;22266;52.340;4.962;2022-12-18T11:48:14;31.00;;;27.00;;
36221;SDS011;22266;52.340;4.962;2022-12-18T11:50:51;29.00;;;24.50;;
36221;SDS011;22266;52.340;4.962;2022-12-18T11:53:20;29.25;;;29.25;;
36221;SDS011;22266;52.340;4.962;2022-12-18T12:07:07;24.75;;;23.00;;
36221;SDS011;22266;52.340;4.962;2022-12-18T12:09:55;33.50;;;26.00;;
36221;SDS011;22266;52.340;4.962;2022-12-18T12:15:20;31.75;;;24.75;;
36221;SDS011;22266;52.340;4.962;2022-12-18T12:21:12;23.00;;;21.00;;
36221;SDS011;22266;52.340;4.962;2022-12-18T12:26:40;25.50;;;22.00;;
36221;SDS011;22266;52.340;4.962;2022-12-18T12:29:39;34.00;;;25.25;;
36221;SDS011;22266;52.340;4.962;2022-12-18T12:32:22;27.50;;;24.50;;
36221;SDS011;22266;52.340;4.962;2022-12-18T12:40:29;27.00;;;23.00;;
36221;SDS011;22266;52.340;4.962;2022-12-18T12:43:31;39.25;;;30.75;;
36221;SDS011;22266;52.340;4.962;2022-12-18T12:46:10;28.00;;;26.00;;
36221;SDS011;22266;52.340;4.962;2022-12-18T12:48:46;29.50;;;28.50;;
36221;SDS011;22266;52.340;4.962;2022-12-18T12:51:17;28.25;;;25.50;;
36221;SDS011;22266;52.340;4.962;2022-12-18T12:53:47;32.00;;;26.50;;
36221;SDS011;22266;52.340;4.962;2022-12-18T12:56:16;29.75;;;22.75;;
36221;SDS011;22266;52.340;4.962;2022-12-18T13:01:28;14.00;;;14.00;;
36221;SDS011;22266;52.340;4.962;2022-12-18T13:04:21;32.25;;;22.25;;
36221;SDS011;22266;52.340;4.962;2022-12-18T13:09:24;27.50;;;25.50;;
36221;SDS011;22266;52.340;4.962;2022-12-18T13:11:51;23.25;;;22.00;;
36221;SDS011;22266;52.340;4.962;2022-12-18T13:14:37;31.75;;;21.00;;
36221;SDS011;22266;52.340;4.962;2022-12-18T13:17:15;35.50;;;27.50;;
36221;SDS011;22266;52.340;4.962;2022-12-18T13:19:43;28.25;;;25.25;;
36221;SDS011;22266;52.340;4.962;2022-12-18T13:22:25;30.75;;;22.50;;
36221;SDS011;22266;52.340;4.962;2022-12-18T13:24:56;27.75;;;24.25;;
36221;SDS011;22266;52.340;4.962;2022-12-18T13:33:30;30.00;;;27.25;;
36221;SDS011;22266;52.340;4.962;2022-12-18T13:38:33;27.50;;;22.50;;
36221;SDS011;22266;52.340;4.962;2022-12-18T13:41:01;38.25;;;30.50;;
36221;SDS011;22266;52.340;4.962;2022-12-18T13:43:35;28.00;;;26.00;;
36221;SDS011;22266;52.340;4.962;2022-12-18T13:46:25;31.00;;;26.50;;
36221;SDS011;22266;52.340;4.962;2022-12-18T13:49:00;24.75;;;22.50;;
36221;SDS011;22266;52.340;4.962;2022-12-18T13:51:29;38.75;;;30.50;;
36221;SDS011;22266;52.340;4.962;2022-12-18T13:54:05;29.75;;;27.25;;
36221;SDS011;22266;52.340;4.962;2022-12-18T13:56:44;30.50;;;26.50;;
36221;SDS011;22266;52.340;4.962;2022-12-18T13:59:46;30.25;;;27.75;;
36221;SDS011;22266;52.340;4.962;2022-12-18T14:02:16;35.50;;;26.00;;
36221;SDS011;22266;52.340;4.962;2022-12-18T14:04:48;33.00;;;27.25;;
36221;SDS011;22266;52.340;4.962;2022-12-18T14:07:19;35.00;;;30.75;;
36221;SDS011;22266;52.340;4.962;2022-12-18T14:09:50;31.00;;;29.50;;
36221;SDS011;22266;52.340;4.962;2022-12-18T14:12:37;34.50;;;30.75;;
36221;SDS011;22266;52.340;4.962;2022-12-18T14:15:39;35.75;;;29.00;;
36221;SDS011;22266;52.340;4.962;2022-12-18T14:21:17;30.00;;;25.50;;
36221;SDS011;22266;52.340;4.962;2022-12-18T14:24:05;32.75;;;27.50;;
36221;SDS011;22266;52.340;4.962;2022-12-18T14:26:45;30.75;;;26.50;;
36221;SDS011;22266;52.340;4.962;2022-12-18T14:32:06;30.75;;;25.75;;
36221;SDS011;22266;52.340;4.962;2022-12-18T14:34:50;31.75;;;30.50;;
36221;SDS011;22266;52.340;4.962;2022-12-18T14:37:22;36.00;;;31.25;;
36221;SDS011;22266;52.340;4.962;2022-12-18T14:39:57;31.00;;;27.75;;
36221;SDS011;22266;52.340;4.962;2022-12-18T14:42:32;29.00;;;23.75;;
36221;SDS011;22266;52.340;4.962;2022-12-18T14:48:15;30.25;;;27.25;;
36221;SDS011;22266;52.340;4.962;2022-12-18T14:51:22;33.50;;;28.50;;
36221;SDS011;22266;52.340;4.962;2022-12-18T14:53:44;38.25;;;28.00;;
36221;SDS011;22266;52.340;4.962;2022-12-18T14:56:21;33.50;;;27.75;;
36221;SDS011;22266;52.340;4.962;2022-12-18T14:58:49;24.75;;;24.25;;
36221;SDS011;22266;52.340;4.962;2022-12-18T15:03:53;31.00;;;29.50;;
36221;SDS011;22266;52.340;4.962;2022-12-18T15:06:28;33.50;;;30.50;;
36221;SDS011;22266;52.340;4.962;2022-12-18T15:08:56;33.75;;;28.75;;
36221;SDS011;22266;52.340;4.962;2022-12-18T15:11:28;39.25;;;28.50;;
36221;SDS011;22266;52.340;4.962;2022-12-18T15:16:57;28.25;;;25.50;;
36221;SDS011;22266;52.340;4.962;2022-12-18T15:19:31;36.25;;;31.50;;
36221;SDS011;22266;52.340;4.962;2022-12-18T15:22:01;33.50;;;29.00;;
36221;SDS011;22266;52.340;4.962;2022-12-18T15:24:31;33.50;;;27.00;;
36221;SDS011;22266;52.340;4.962;2022-12-18T15:26:59;27.00;;;27.00;;
36221;SDS011;22266;52.340;4.962;2022-12-18T15:29:26;33.00;;;28.75;;
36221;SDS011;22266;52.340;4.962;2022-12-18T15:32:03;41.50;;;30.25;;
36221;SDS011;22266;52.340;4.962;2022-12-18T15:34:31;37.00;;;33.50;;
36221;SDS011;22266;52.340;4.962;2022-12-18T15:37:00;30.25;;;26.75;;
36221;SDS011;22266;52.340;4.962;2022-12-18T15:39:26;37.75;;;33.50;;
36221;SDS011;22266;52.340;4.962;2022-12-18T15:41:52;38.00;;;30.50;;
36221;SDS011;22266;52.340;4.962;2022-12-18T15:44:37;39.25;;;31.75;;
36221;SDS011;22266;52.340;4.962;2022-12-18T15:47:07;33.50;;;33.00;;
36221;SDS011;22266;52.340;4.962;2022-12-18T15:49:36;42.50;;;36.25;;
36221;SDS011;22266;52.340;4.962;2022-12-18T15:52:03;32.25;;;29.00;;
36221;SDS011;22266;52.340;4.962;2022-12-18T15:54:30;34.25;;;27.50;;
36221;SDS011;22266;52.340;4.962;2022-12-18T15:57:15;38.50;;;32.00;;
36221;SDS011;22266;52.340;4.962;2022-12-18T15:59:51;30.50;;;26.50;;
36221;SDS011;22266;52.340;4.962;2022-12-18T16:02:19;38.25;;;28.50;;
36221;SDS011;22266;52.340;4.962;2022-12-18T16:04:49;45.50;;;33.75;;
36221;SDS011;22266;52.340;4.962;2022-12-18T16:07:18;42.75;;;35.75;;
36221;SDS011;22266;52.340;4.962;2022-12-18T16:09:51;36.00;;;27.75;;
36221;SDS011;22266;52.340;4.962;2022-12-18T16:12:21;38.00;;;34.00;;
36221;SDS011;22266;52.340;4.962;2022-12-18T16:14:50;38.50;;;34.25;;
36221;SDS011;22266;52.340;4.962;2022-12-18T16:17:16;37.75;;;27.50;;
36221;SDS011;22266;52.340;4.962;2022-12-18T16:19:43;37.75;;;32.75;;
36221;SDS011;22266;52.340;4.962;2022-12-18T16:22:17;36.50;;;31.00;;
36221;SDS011;22266;52.340;4.962;2022-12-18T16:24:49;39.50;;;36.25;;
36221;SDS011;22266;52.340;4.962;2022-12-18T16:27:16;24.00;;;23.50;;
36221;SDS011;22266;52.340;4.962;2022-12-18T16:29:42;33.00;;;30.75;;
36221;SDS011;22266;52.340;4.962;2022-12-18T16:32:11;41.75;;;32.50;;
36221;SDS011;22266;52.340;4.962;2022-12-18T16:34:41;35.00;;;32.50;;
36221;SDS011;22266;52.340;4.962;2022-12-18T16:37:08;29.50;;;27.50;;
36221;SDS011;22266;52.340;4.962;2022-12-18T16:39:36;38.75;;;36.75;;